Time;durP1;ratioP1;P1;durP2;ratioP2;P2;SDS_P1;SDS_P2;PMS_P1;PMS_P2;Temp;Humidity;BMP_temperature;BMP_pressure;BME280_temperature;BME280_humidity;BME280_pressure;Samples;Min_cycle;Max_cycle;Signal;HPM_P1;HPM_P2
2023/05/07 00:00:38;;;;;;;4.32;3.92;;;;;21.50;101489.00;;;;5062506;28;20203;-79
2023/05/07 00:03:06;;;;;;;4.25;3.72;;;;;21.50;101490.00;;;;5052259;28;20191;-79
2023/05/07 00:05:33;;;;;;;4.15;3.53;;;;;21.40;101491.00;;;;5063549;28;20469;-79
2023/05/07 00:08:01;;;;;;;4.28;3.72;;;;;21.40;101491.00;;;;5071756;28;20191;-79
2023/05/07 00:10:28;;;;;;;5.47;4.38;;;;;21.40;101494.00;;;;5070810;28;20210;-80
2023/05/07 00:12:55;;;;;;;4.45;4.00;;;;;21.40;101481.00;;;;5071239;28;20203;-80
2023/05/07 00:15:24;;;;;;;4.45;3.85;;;;;21.40;101488.00;;;;5062857;28;20223;-80
2023/05/07 00:17:51;;;;;;;4.25;3.85;;;;;21.40;101487.00;;;;5052605;28;20722;-80
2023/05/07 00:20:18;;;;;;;4.03;3.65;;;;;21.30;101494.00;;;;5051412;28;20661;-80
2023/05/07 00:22:45;;;;;;;5.53;3.58;;;;;21.30;101482.00;;;;5061572;28;20202;-80
2023/05/07 00:25:13;;;;;;;4.22;3.75;;;;;21.30;101487.00;;;;5070140;28;20210;-79
2023/05/07 00:27:40;;;;;;;4.75;4.22;;;;;21.30;101484.00;;;;5052591;28;20207;-79
2023/05/07 00:30:08;;;;;;;6.88;3.53;;;;;21.30;101477.00;;;;5063208;28;20213;-79
2023/05/07 00:32:37;;;;;;;4.68;3.17;;;;;21.30;101477.00;;;;5051157;28;20223;-79
2023/05/07 00:35:05;;;;;;;3.38;3.08;;;;;21.30;101462.00;;;;5052191;28;20310;-79
2023/05/07 00:37:33;;;;;;;3.50;3.20;;;;;21.20;101466.00;;;;5056527;28;20195;-79
2023/05/07 00:40:03;;;;;;;5.60;3.85;;;;;21.20;101470.00;;;;5064335;28;21071;-79
2023/05/07 00:42:32;;;;;;;5.45;3.47;;;;;21.20;101469.00;;;;5069511;28;20211;-79
2023/05/07 00:44:59;;;;;;;4.78;3.63;;;;;21.20;101470.00;;;;5067639;28;20283;-80
2023/05/07 00:47:27;;;;;;;3.80;3.40;;;;;21.20;101467.00;;;;5071127;28;20198;-80
2023/05/07 00:49:57;;;;;;;3.72;3.35;;;;;21.20;101467.00;;;;5054192;28;20194;-79
2023/05/07 00:52:27;;;;;;;3.40;3.10;;;;;21.20;101464.00;;;;5051631;28;20724;-80
2023/05/07 00:54:55;;;;;;;4.07;3.60;;;;;21.20;101458.00;;;;5051222;28;20230;-80
2023/05/07 00:57:25;;;;;;;4.68;3.88;;;;;21.20;101456.00;;;;5061530;28;20245;-79
2023/05/07 00:59:53;;;;;;;6.25;3.42;;;;;21.20;101457.00;;;;5065083;28;20203;-79
2023/05/07 01:02:20;;;;;;;3.58;2.85;;;;;21.20;101452.00;;;;5056213;28;20210;-79
2023/05/07 01:04:47;;;;;;;4.45;3.28;;;;;21.20;101461.00;;;;5057182;28;20199;-79
2023/05/07 01:07:16;;;;;;;3.42;3.13;;;;;21.20;101459.00;;;;5055857;28;20200;-79
2023/05/07 01:09:44;;;;;;;3.47;3.13;;;;;21.20;101456.00;;;;5050186;28;20848;-79
2023/05/07 01:12:12;;;;;;;4.10;3.42;;;;;21.20;101458.00;;;;5066253;28;20206;-79
2023/05/07 01:14:39;;;;;;;3.92;3.47;;;;;21.10;101453.00;;;;5067875;28;20230;-79
2023/05/07 01:17:08;;;;;;;3.13;2.80;;;;;21.20;101453.00;;;;5069252;28;20207;-79
2023/05/07 01:19:36;;;;;;;3.35;2.85;;;;;21.20;101455.00;;;;5058797;28;20204;-79
2023/05/07 01:22:08;;;;;;;3.67;3.03;;;;;21.10;101450.00;;;;5054501;28;20669;-79
2023/05/07 01:24:38;;;;;;;3.95;3.10;;;;;21.10;101449.00;;;;5068471;28;20202;-79
2023/05/07 01:27:06;;;;;;;3.55;2.95;;;;;21.20;101456.00;;;;5068094;28;20576;-79
2023/05/07 01:29:33;;;;;;;3.95;3.08;;;;;21.20;101448.00;;;;5069165;28;20211;-79
2023/05/07 01:32:02;;;;;;;4.07;3.67;;;;;21.20;101448.00;;;;5063551;28;20191;-79
2023/05/07 01:34:33;;;;;;;4.13;3.10;;;;;21.10;101451.00;;;;5058779;28;20243;-79
2023/05/07 01:37:01;;;;;;;3.67;2.80;;;;;21.20;101452.00;;;;5062354;28;20203;-79
2023/05/07 01:39:30;;;;;;;4.32;3.15;;;;;21.20;101456.00;;;;5058250;28;20215;-80
2023/05/07 01:42:00;;;;;;;3.92;3.20;;;;;21.20;101459.00;;;;5056095;28;20203;-79
2023/05/07 01:44:28;;;;;;;4.07;3.17;;;;;21.20;101463.00;;;;5064788;28;20544;-79
2023/05/07 01:46:56;;;;;;;3.13;2.85;;;;;21.20;101472.00;;;;5050471;28;20564;-80
2023/05/07 01:49:24;;;;;;;3.03;2.78;;;;;21.20;101458.00;;;;5049620;28;20207;-79
2023/05/07 01:51:52;;;;;;;3.50;3.03;;;;;21.20;101455.00;;;;5064289;28;20238;-79
2023/05/07 01:54:20;;;;;;;5.07;3.20;;;;;21.20;101455.00;;;;5061757;28;20238;-79
2023/05/07 01:56:47;;;;;;;4.30;3.20;;;;;21.20;101455.00;;;;5067220;28;20663;-79
2023/05/07 01:59:16;;;;;;;3.72;3.40;;;;;21.20;101464.00;;;;5068872;28;20657;-79
2023/05/07 02:01:43;;;;;;;3.05;2.70;;;;;21.20;101465.00;;;;5068378;28;20202;-79
2023/05/07 02:04:11;;;;;;;3.65;3.25;;;;;21.20;101461.00;;;;5050238;28;20219;-78
2023/05/07 02:06:38;;;;;;;3.72;3.30;;;;;21.20;101455.00;;;;5067154;28;20199;-79
2023/05/07 02:09:05;;;;;;;3.83;3.42;;;;;21.20;101459.00;;;;5068462;28;20199;-79
2023/05/07 02:11:32;;;;;;;5.00;3.75;;;;;21.20;101456.00;;;;5057414;28;20199;-79
2023/05/07 02:14:00;;;;;;;3.58;3.28;;;;;21.20;101451.00;;;;5057104;28;20199;-79
2023/05/07 02:16:28;;;;;;;5.28;3.47;;;;;21.20;101452.00;;;;5055749;28;20199;-79
2023/05/07 02:18:56;;;;;;;4.10;3.20;;;;;21.20;101446.00;;;;5066571;28;20201;-79
2023/05/07 02:21:23;;;;;;;4.63;3.80;;;;;21.20;101450.00;;;;5068548;28;20198;-79
2023/05/07 02:23:50;;;;;;;4.07;3.55;;;;;21.20;101447.00;;;;5069403;28;20202;-80
2023/05/07 02:26:18;;;;;;;3.92;3.20;;;;;21.20;101445.00;;;;5055564;28;20207;-79
2023/05/07 02:28:45;;;;;;;4.00;3.50;;;;;21.20;101446.00;;;;5067944;28;20211;-79
2023/05/07 02:31:12;;;;;;;5.05;3.90;;;;;21.20;101447.00;;;;5062515;28;20187;-79
2023/05/07 02:33:41;;;;;;;4.88;3.60;;;;;21.20;101443.00;;;;5067576;28;20688;-79
2023/05/07 02:36:09;;;;;;;5.05;3.65;;;;;21.20;101435.00;;;;5056576;28;20223;-80
2023/05/07 02:38:36;;;;;;;4.65;3.83;;;;;21.20;101442.00;;;;5058973;28;20191;-79
2023/05/07 02:41:04;;;;;;;4.47;4.07;;;;;21.20;101438.00;;;;5054919;28;20210;-79
2023/05/07 02:43:31;;;;;;;4.28;3.55;;;;;21.20;101438.00;;;;5067244;28;20645;-79
2023/05/07 02:46:05;;;;;;;5.10;4.05;;;;;21.10;101445.00;;;;5066956;28;20198;-80
2023/05/07 02:48:33;;;;;;;4.93;3.80;;;;;21.20;101447.00;;;;5049792;28;20286;-79
2023/05/07 02:51:02;;;;;;;4.47;4.07;;;;;21.10;101448.00;;;;5060783;28;20700;-80
2023/05/07 02:53:30;;;;;;;5.40;3.78;;;;;21.20;101454.00;;;;5058461;28;20199;-80
2023/05/07 02:55:58;;;;;;;4.28;3.88;;;;;21.10;101453.00;;;;5048464;28;20600;-80
2023/05/07 02:58:25;;;;;;;6.38;4.32;;;;;21.10;101456.00;;;;5049059;28;20204;-79
2023/05/07 03:00:54;;;;;;;4.22;3.28;;;;;21.10;101453.00;;;;5052042;28;20210;-80
2023/05/07 03:03:21;;;;;;;4.57;4.05;;;;;21.10;101441.00;;;;5068309;28;20201;-80
2023/05/07 03:05:49;;;;;;;4.43;3.75;;;;;21.10;101440.00;;;;5065848;28;20202;-79
2023/05/07 03:08:17;;;;;;;4.75;3.88;;;;;21.10;101444.00;;;;5067506;28;20736;-79
2023/05/07 03:10:44;;;;;;;4.07;3.67;;;;;21.10;101437.00;;;;5068960;28;20564;-80
2023/05/07 03:13:12;;;;;;;3.88;3.50;;;;;21.00;101437.00;;;;5066524;28;20198;-80
2023/05/07 03:15:39;;;;;;;5.43;4.18;;;;;21.00;101439.00;;;;5049935;28;20607;-79
2023/05/07 03:18:06;;;;;;;6.70;4.60;;;;;21.00;101436.00;;;;5058267;28;20566;-80
2023/05/07 03:20:34;;;;;;;5.20;3.90;;;;;21.00;101437.00;;;;5044460;28;20196;-79
2023/05/07 03:23:01;;;;;;;4.97;3.85;;;;;21.00;101434.00;;;;5043227;28;20200;-79
2023/05/07 03:25:30;;;;;;;4.80;4.30;;;;;20.90;101434.00;;;;5037491;28;20203;-79
2023/05/07 03:27:58;;;;;;;4.82;4.00;;;;;20.90;101435.00;;;;5034283;28;20218;-79
2023/05/07 03:30:25;;;;;;;5.90;4.47;;;;;20.90;101428.00;;;;5037909;28;20211;-79
2023/05/07 03:32:52;;;;;;;5.18;4.63;;;;;20.90;101447.00;;;;5039754;28;20226;-79
2023/05/07 03:35:21;;;;;;;4.80;4.18;;;;;20.80;101441.00;;;;5036956;28;20230;-79
2023/05/07 03:37:48;;;;;;;7.45;5.03;;;;;20.80;101441.00;;;;5039368;28;20207;-79
2023/05/07 03:40:17;;;;;;;5.55;4.57;;;;;20.80;101439.00;;;;5043492;28;21032;-79
2023/05/07 03:42:45;;;;;;;6.03;4.90;;;;;20.80;101440.00;;;;5059589;28;20202;-79
2023/05/07 03:45:13;;;;;;;7.32;4.88;;;;;20.70;101445.00;;;;5044318;28;20191;-79
2023/05/07 03:47:40;;;;;;;6.85;5.55;;;;;20.70;101440.00;;;;5040333;28;20830;-79
2023/05/07 03:50:08;;;;;;;5.88;4.75;;;;;20.70;101444.00;;;;5048261;28;20204;-79
2023/05/07 03:52:35;;;;;;;6.18;4.72;;;;;20.70;101434.00;;;;5054960;28;20214;-79
2023/05/07 03:55:03;;;;;;;5.70;5.10;;;;;20.70;101437.00;;;;5044507;28;20599;-79
2023/05/07 03:57:30;;;;;;;7.00;4.85;;;;;20.70;101440.00;;;;5051732;28;20196;-79
2023/05/07 03:59:59;;;;;;;5.32;4.82;;;;;20.70;101440.00;;;;5053065;28;20645;-78
2023/05/07 04:02:26;;;;;;;7.60;5.40;;;;;20.70;101443.00;;;;5050876;28;20211;-79
2023/05/07 04:04:53;;;;;;;6.22;5.30;;;;;20.70;101444.00;;;;5056743;28;20206;-79
2023/05/07 04:07:21;;;;;;;8.05;5.57;;;;;20.70;101449.00;;;;5041344;28;20199;-79
2023/05/07 04:09:48;;;;;;;7.38;5.88;;;;;20.70;101447.00;;;;5049823;28;20203;-79
2023/05/07 04:12:16;;;;;;;5.43;4.72;;;;;20.70;101448.00;;;;5049958;28;20192;-79
2023/05/07 04:14:43;;;;;;;6.72;6.03;;;;;20.70;101450.00;;;;5054680;28;20286;-79
2023/05/07 04:17:11;;;;;;;7.13;5.80;;;;;20.70;101452.00;;;;5069727;28;20198;-79
2023/05/07 04:19:39;;;;;;;5.70;5.18;;;;;20.70;101446.00;;;;5070828;28;20199;-79
2023/05/07 04:22:06;;;;;;;12.35;6.00;;;;;20.70;101439.00;;;;5060705;28;20701;-79
2023/05/07 04:24:33;;;;;;;5.18;4.68;;;;;20.70;101453.00;;;;5059418;28;20195;-79
2023/05/07 04:27:01;;;;;;;7.10;5.57;;;;;20.70;101449.00;;;;5051203;28;20203;-79
2023/05/07 04:29:29;;;;;;;5.97;5.18;;;;;20.70;101458.00;;;;5054363;28;20195;-79
2023/05/07 04:31:56;;;;;;;6.97;6.03;;;;;20.70;101452.00;;;;5048603;28;20296;-79
2023/05/07 04:34:25;;;;;;;8.60;6.25;;;;;20.70;101448.00;;;;5050281;28;20228;-80
2023/05/07 04:36:52;;;;;;;5.85;5.25;;;;;20.80;101454.00;;;;5050463;28;20227;-79
2023/05/07 04:39:20;;;;;;;6.03;5.28;;;;;20.80;101452.00;;;;5055358;28;20215;-79
2023/05/07 04:41:47;;;;;;;7.65;5.95;;;;;20.80;101454.00;;;;5057176;28;20206;-79
2023/05/07 04:44:14;;;;;;;6.28;5.65;;;;;20.80;101456.00;;;;5051970;28;20206;-79
2023/05/07 04:46:42;;;;;;;6.57;5.88;;;;;20.80;101454.00;;;;5051563;28;20199;-79
2023/05/07 04:49:10;;;;;;;5.78;5.13;;;;;20.80;101450.00;;;;5052843;28;20615;-79
2023/05/07 04:51:42;;;;;;;7.82;6.18;;;;;20.90;101454.00;;;;5048293;28;20210;-79
2023/05/07 04:54:09;;;;;;;8.18;6.07;;;;;20.90;101455.00;;;;5062061;28;20214;-79
2023/05/07 04:56:37;;;;;;;5.82;5.32;;;;;20.90;101460.00;;;;5053345;28;20272;-78
2023/05/07 04:59:04;;;;;;;8.68;6.78;;;;;20.90;101458.00;;;;5056579;28;20200;-79
2023/05/07 05:01:31;;;;;;;6.68;5.78;;;;;20.90;101453.00;;;;5055673;28;20215;-80
2023/05/07 05:03:59;;;;;;;6.07;5.32;;;;;21.00;101470.00;;;;5059767;28;20297;-79
2023/05/07 05:06:27;;;;;;;7.30;5.65;;;;;21.00;101469.00;;;;5053997;28;20741;-80
2023/05/07 05:08:56;;;;;;;6.75;5.43;;;;;21.00;101467.00;;;;5062681;28;20840;-79
2023/05/07 05:11:23;;;;;;;6.88;5.57;;;;;21.00;101474.00;;;;5051756;28;20204;-79
2023/05/07 05:13:51;;;;;;;7.68;5.95;;;;;21.10;101474.00;;;;5062368;28;20191;-79
2023/05/07 05:16:18;;;;;;;8.40;6.95;;;;;21.10;101476.00;;;;5058508;28;20227;-79
2023/05/07 05:18:45;;;;;;;7.25;6.22;;;;;21.10;101472.00;;;;5069079;28;20186;-79
2023/05/07 05:21:12;;;;;;;6.70;5.68;;;;;21.10;101475.00;;;;5066124;28;20200;-79
2023/05/07 05:23:40;;;;;;;6.82;6.13;;;;;21.10;101475.00;;;;5050157;28;20196;-80
2023/05/07 05:26:08;;;;;;;8.10;6.07;;;;;21.10;101470.00;;;;5057782;28;20214;-79
2023/05/07 05:28:36;;;;;;;7.72;6.10;;;;;21.20;101486.00;;;;5052557;28;20203;-79
2023/05/07 05:31:03;;;;;;;7.10;6.40;;;;;21.20;101486.00;;;;5058782;28;20191;-80
2023/05/07 05:33:30;;;;;;;5.93;5.35;;;;;21.20;101491.00;;;;5055699;28;20232;-80
2023/05/07 05:35:57;;;;;;;10.32;6.10;;;;;21.20;101488.00;;;;5058012;28;20230;-80
2023/05/07 05:38:25;;;;;;;6.68;5.45;;;;;21.20;101499.00;;;;5064422;28;20204;-80
2023/05/07 05:40:52;;;;;;;8.13;5.85;;;;;21.20;101496.00;;;;5057880;28;20285;-80
2023/05/07 05:43:21;;;;;;;7.80;5.70;;;;;21.20;101504.00;;;;5067506;28;20202;-80
2023/05/07 05:45:48;;;;;;;6.55;5.60;;;;;21.20;101506.00;;;;5066872;28;20198;-80
2023/05/07 05:48:16;;;;;;;6.78;6.10;;;;;21.30;101507.00;;;;5068082;28;20199;-81
2023/05/07 05:50:43;;;;;;;6.20;5.60;;;;;21.30;101509.00;;;;5052281;28;20580;-81
2023/05/07 05:53:11;;;;;;;6.88;5.65;;;;;21.30;101513.00;;;;5050036;28;20202;-80
2023/05/07 05:55:38;;;;;;;7.40;6.22;;;;;21.30;101521.00;;;;5057278;28;20219;-80
2023/05/07 05:58:06;;;;;;;6.90;5.93;;;;;21.30;101524.00;;;;5063521;28;20195;-80
2023/05/07 06:00:34;;;;;;;6.32;5.72;;;;;21.30;101522.00;;;;5070680;28;20282;-80
2023/05/07 06:03:02;;;;;;;6.53;5.93;;;;;21.30;101524.00;;;;5069102;28;20199;-80
2023/05/07 06:05:29;;;;;;;8.10;5.50;;;;;21.30;101524.00;;;;5063840;28;20199;-80
2023/05/07 06:07:57;;;;;;;6.72;6.07;;;;;21.30;101526.00;;;;5069022;28;20206;-80
2023/05/07 06:10:26;;;;;;;7.55;5.30;;;;;21.30;101528.00;;;;5064595;28;20236;-81
2023/05/07 06:12:53;;;;;;;8.30;6.10;;;;;21.30;101524.00;;;;5059282;28;20234;-81
2023/05/07 06:15:20;;;;;;;9.50;6.72;;;;;21.30;101532.00;;;;5059271;28;20684;-81
2023/05/07 06:17:49;;;;;;;11.73;6.38;;;;;21.30;101530.00;;;;5065481;28;20206;-80
2023/05/07 06:20:17;;;;;;;8.52;6.45;;;;;21.30;101526.00;;;;5061519;28;20207;-80
2023/05/07 06:22:44;;;;;;;10.98;6.32;;;;;21.30;101521.00;;;;5063090;28;20573;-81
2023/05/07 06:25:11;;;;;;;8.55;6.10;;;;;21.30;101528.00;;;;5054488;28;20665;-80
2023/05/07 06:27:39;;;;;;;7.18;6.30;;;;;21.30;101529.00;;;;5048626;28;20204;-80
2023/05/07 06:30:08;;;;;;;6.72;6.10;;;;;21.30;101523.00;;;;5051550;28;20219;-80
2023/05/07 06:32:35;;;;;;;8.88;5.95;;;;;21.40;101527.00;;;;5066203;28;20600;-80
2023/05/07 06:35:04;;;;;;;7.70;6.72;;;;;21.40;101517.00;;;;5066674;28;20252;-80
2023/05/07 06:37:32;;;;;;;7.07;6.13;;;;;21.40;101524.00;;;;5051212;28;20696;-80
2023/05/07 06:39:59;;;;;;;7.78;6.70;;;;;21.40;101532.00;;;;5053797;28;20290;-82
2023/05/07 06:42:27;;;;;;;6.60;6.00;;;;;21.40;101529.00;;;;5056851;28;20207;-81
2023/05/07 06:44:54;;;;;;;7.35;5.75;;;;;21.40;101531.00;;;;5054579;28;20195;-81
2023/05/07 06:47:22;;;;;;;7.60;6.03;;;;;21.40;101530.00;;;;5058867;28;20260;-80
2023/05/07 06:49:49;;;;;;;7.18;5.95;;;;;21.40;101534.00;;;;5062275;28;20199;-80
2023/05/07 06:52:18;;;;;;;8.55;6.05;;;;;21.40;101523.00;;;;5050356;28;20401;-81
2023/05/07 06:54:45;;;;;;;6.60;5.78;;;;;21.50;101527.00;;;;5048468;28;20210;-81
2023/05/07 06:57:12;;;;;;;6.10;5.50;;;;;21.50;101531.00;;;;5059162;28;20227;-80
2023/05/07 06:59:40;;;;;;;6.22;5.50;;;;;21.50;101531.00;;;;5056005;28;20199;-80
2023/05/07 07:02:08;;;;;;;7.38;6.18;;;;;21.50;101534.00;;;;5058336;28;20206;-80
2023/05/07 07:04:35;;;;;;;7.72;6.28;;;;;21.60;101532.00;;;;5056775;28;20326;-80
2023/05/07 07:07:03;;;;;;;6.57;5.95;;;;;21.60;101533.00;;;;5052581;28;20204;-80
2023/05/07 07:09:32;;;;;;;7.13;6.05;;;;;21.70;101532.00;;;;5050287;28;20203;-80
2023/05/07 07:11:59;;;;;;;6.35;5.57;;;;;21.70;101536.00;;;;5053542;28;20238;-81
2023/05/07 07:14:26;;;;;;;6.93;5.97;;;;;21.80;101541.00;;;;5061742;28;20566;-80
2023/05/07 07:16:54;;;;;;;6.22;5.68;;;;;21.80;101538.00;;;;5057639;28;20220;-80
2023/05/07 07:19:23;;;;;;;6.97;5.78;;;;;21.90;101534.00;;;;5065686;28;20201;-80
2023/05/07 07:21:50;;;;;;;8.63;6.50;;;;;22.00;101532.00;;;;5054671;28;20191;-80
2023/05/07 07:24:20;;;;;;;6.38;5.78;;;;;22.00;101530.00;;;;5068583;28;20642;-79
2023/05/07 07:26:49;;;;;;;8.57;6.03;;;;;22.10;101532.00;;;;5066665;28;20285;-80
2023/05/07 07:29:18;;;;;;;6.13;5.28;;;;;22.20;101531.00;;;;5050524;28;21092;-80
2023/05/07 07:31:45;;;;;;;6.35;5.63;;;;;22.20;101531.00;;;;5059474;28;20207;-79
2023/05/07 07:34:15;;;;;;;6.43;5.72;;;;;22.30;101530.00;;;;5055269;28;20231;-80
2023/05/07 07:36:43;;;;;;;7.45;6.75;;;;;22.30;101535.00;;;;5057302;28;20242;-82
2023/05/07 07:39:10;;;;;;;6.45;5.85;;;;;22.40;101535.00;;;;5048325;28;20214;-81
2023/05/07 07:41:37;;;;;;;7.88;5.78;;;;;22.40;101540.00;;;;5048578;28;20207;-80
2023/05/07 07:44:07;;;;;;;7.55;6.75;;;;;22.40;101548.00;;;;5048269;28;20211;-81
2023/05/07 07:46:34;;;;;;;6.82;5.88;;;;;22.50;101545.00;;;;5048175;28;20208;-80
2023/05/07 07:49:01;;;;;;;7.68;6.35;;;;;22.50;101554.00;;;;5051318;28;20207;-80
2023/05/07 07:51:29;;;;;;;7.78;5.97;;;;;22.60;101553.00;;;;5048208;28;20210;-80
2023/05/07 07:53:57;;;;;;;6.38;5.78;;;;;22.60;101558.00;;;;5048706;28;20206;-80
2023/05/07 07:56:25;;;;;;;7.25;5.72;;;;;22.70;101558.00;;;;5058009;28;20281;-81
2023/05/07 07:58:52;;;;;;;6.55;5.88;;;;;22.70;101555.00;;;;5055633;28;20202;-80
2023/05/07 08:01:20;;;;;;;6.68;5.70;;;;;22.70;101556.00;;;;5055143;28;20210;-81
2023/05/07 08:03:48;;;;;;;7.30;5.65;;;;;22.80;101558.00;;;;5056305;28;20203;-80
2023/05/07 08:06:15;;;;;;;7.10;6.28;;;;;22.80;101565.00;;;;5051882;28;20199;-79
2023/05/07 08:08:42;;;;;;;6.97;6.30;;;;;22.80;101557.00;;;;5059068;28;20199;-80
2023/05/07 08:11:10;;;;;;;6.70;5.72;;;;;22.90;101557.00;;;;5046565;28;20206;-80
2023/05/07 08:13:38;;;;;;;7.22;6.15;;;;;22.90;101558.00;;;;5055423;28;20196;-80
2023/05/07 08:16:06;;;;;;;6.50;5.85;;;;;22.90;101563.00;;;;5047899;28;20206;-80
2023/05/07 08:18:34;;;;;;;8.18;6.43;;;;;23.00;101557.00;;;;5046914;28;20670;-79
2023/05/07 08:21:02;;;;;;;7.00;6.30;;;;;23.00;101559.00;;;;5046664;28;20196;-80
2023/05/07 08:23:30;;;;;;;7.18;5.80;;;;;23.10;101558.00;;;;5053467;28;20211;-80
2023/05/07 08:25:57;;;;;;;7.07;6.30;;;;;23.10;101550.00;;;;5058960;28;20203;-80
2023/05/07 08:28:25;;;;;;;6.68;6.03;;;;;23.10;101557.00;;;;5052826;28;20195;-79
2023/05/07 08:30:52;;;;;;;6.03;5.43;;;;;23.20;101560.00;;;;5050335;28;20192;-80
2023/05/07 08:33:20;;;;;;;6.38;5.72;;;;;23.20;101569.00;;;;5051570;28;20226;-79
2023/05/07 08:35:48;;;;;;;5.75;5.18;;;;;23.20;101566.00;;;;5061953;28;20202;-80
2023/05/07 08:38:16;;;;;;;7.47;6.00;;;;;23.20;101573.00;;;;5054557;28;20224;-80
2023/05/07 08:40:43;;;;;;;5.90;5.10;;;;;23.20;101568.00;;;;5058454;28;20210;-80
2023/05/07 08:43:14;;;;;;;7.70;5.13;;;;;23.20;101569.00;;;;5050907;28;20203;-80
2023/05/07 08:45:42;;;;;;;5.82;5.20;;;;;23.20;101576.00;;;;5050253;28;20200;-79
2023/05/07 08:48:17;;;;;;;6.57;5.60;;;;;23.20;101569.00;;;;5050321;28;20196;-80
2023/05/07 08:50:44;;;;;;;4.65;4.22;;;;;23.20;101572.00;;;;5053709;28;20634;-80
2023/05/07 08:53:14;;;;;;;6.40;5.78;;;;;23.20;101570.00;;;;5053998;28;20208;-80
2023/05/07 08:55:41;;;;;;;6.68;5.20;;;;;23.20;101571.00;;;;5058239;28;20207;-80
2023/05/07 08:58:09;;;;;;;7.18;4.50;;;;;23.20;101568.00;;;;5050393;28;20223;-78
2023/05/07 09:00:38;;;;;;;6.68;4.10;;;;;23.20;101566.00;;;;5054258;28;20278;-79
2023/05/07 09:03:05;;;;;;;6.47;4.25;;;;;23.30;101568.00;;;;5057318;28;20187;-79
2023/05/07 09:05:32;;;;;;;6.82;4.40;;;;;23.40;101568.00;;;;5058171;28;20191;-79
2023/05/07 09:08:00;;;;;;;5.82;4.55;;;;;23.40;101574.00;;;;5048925;28;20290;-78
2023/05/07 09:10:30;;;;;;;5.28;4.55;;;;;23.40;101567.00;;;;5057666;28;20192;-79
2023/05/07 09:12:57;;;;;;;6.28;5.32;;;;;23.50;101573.00;;;;5049532;28;20211;-79
2023/05/07 09:15:24;;;;;;;7.68;5.80;;;;;23.60;101567.00;;;;5051190;28;20207;-79
2023/05/07 09:17:52;;;;;;;7.05;5.07;;;;;23.70;101577.00;;;;5055970;28;20226;-79
2023/05/07 09:20:19;;;;;;;7.63;5.32;;;;;23.70;101588.00;;;;5064886;28;20210;-79
2023/05/07 09:22:47;;;;;;;8.38;5.18;;;;;23.80;101578.00;;;;5054935;28;20199;-79
2023/05/07 09:25:14;;;;;;;9.75;5.95;;;;;23.90;101586.00;;;;5059325;28;20203;-79
2023/05/07 09:27:43;;;;;;;6.50;5.70;;;;;24.00;101584.00;;;;5053466;28;20202;-79
2023/05/07 09:30:11;;;;;;;7.28;6.28;;;;;24.10;101577.00;;;;5054047;28;20198;-78
2023/05/07 09:32:39;;;;;;;6.30;5.70;;;;;24.10;101575.00;;;;5054775;28;20199;-78
2023/05/07 09:35:15;;;;;;;7.45;6.47;;;;;24.20;101577.00;;;;5053537;28;20227;-78
2023/05/07 09:37:43;;;;;;;7.40;5.78;;;;;24.30;101577.00;;;;5046396;28;20231;-77
2023/05/07 09:40:22;;;;;;;7.22;6.50;;;;;24.30;101574.00;;;;5055683;28;20195;-79
2023/05/07 09:42:51;;;;;;;9.23;7.28;;;;;24.40;101574.00;;;;5058513;28;20268;-78
2023/05/07 09:45:24;;;;;;;8.45;7.53;;;;;24.50;101575.00;;;;5052988;28;20225;-77
2023/05/07 09:47:56;;;;;;;7.35;6.63;;;;;24.50;101578.00;;;;5051602;28;20211;-78
2023/05/07 09:50:27;;;;;;;11.23;7.50;;;;;24.60;101581.00;;;;5048781;28;20227;-77
2023/05/07 09:52:55;;;;;;;6.68;5.55;;;;;24.70;101585.00;;;;5050282;28;20204;-78
2023/05/07 09:55:23;;;;;;;11.65;6.60;;;;;24.80;101583.00;;;;5060882;28;20202;-77
2023/05/07 09:57:53;;;;;;;6.90;6.03;;;;;24.80;101589.00;;;;5060240;28;20234;-78
2023/05/07 10:00:22;;;;;;;10.02;7.43;;;;;24.90;101595.00;;;;5058328;28;20731;-78
2023/05/07 10:02:51;;;;;;;8.57;7.22;;;;;24.90;101594.00;;;;5058862;28;20206;-77
2023/05/07 10:05:19;;;;;;;7.82;7.00;;;;;25.00;101589.00;;;;5057047;28;20195;-78
2023/05/07 10:07:48;;;;;;;8.25;6.57;;;;;25.00;101588.00;;;;5051634;28;20212;-77
2023/05/07 10:10:16;;;;;;;9.60;6.70;;;;;25.10;101588.00;;;;5055535;28;20553;-77
2023/05/07 10:12:44;;;;;;;8.35;7.05;;;;;25.20;101595.00;;;;5057668;28;20198;-78
2023/05/07 10:15:14;;;;;;;8.65;7.07;;;;;25.20;101589.00;;;;5049835;28;20282;-78
2023/05/07 10:17:42;;;;;;;7.28;6.18;;;;;25.30;101593.00;;;;5050889;28;20306;-78
2023/05/07 10:20:10;;;;;;;6.93;6.22;;;;;25.40;101589.00;;;;5056374;28;20204;-78
2023/05/07 10:22:42;;;;;;;6.70;6.00;;;;;25.50;101595.00;;;;5054549;28;20306;-76
2023/05/07 10:25:18;;;;;;;7.05;6.38;;;;;25.60;101586.00;;;;5056514;28;20202;-77
2023/05/07 10:27:49;;;;;;;7.15;6.45;;;;;25.70;101585.00;;;;5049416;28;20195;-78
2023/05/07 10:30:33;;;;;;;9.80;6.28;;;;;25.70;101590.00;;;;5058128;28;20395;-79
2023/05/07 10:33:05;;;;;;;8.07;6.45;;;;;25.90;101586.00;;;;5055790;28;20225;-80
2023/05/07 10:35:38;;;;;;;6.95;6.03;;;;;26.00;101582.00;;;;5056120;28;20195;-80
2023/05/07 10:38:06;;;;;;;6.78;5.72;;;;;26.10;101588.00;;;;5052208;28;20227;-79
2023/05/07 10:40:33;;;;;;;6.15;5.55;;;;;26.20;101583.00;;;;5060701;28;20203;-80
2023/05/07 10:43:04;;;;;;;6.30;5.72;;;;;26.30;101586.00;;;;5064901;28;20203;-79
2023/05/07 10:45:33;;;;;;;5.25;4.75;;;;;26.40;101586.00;;;;5062254;28;20672;-80
2023/05/07 10:48:11;;;;;;;7.82;5.40;;;;;26.40;101590.00;;;;5056958;28;20204;-80
2023/05/07 10:50:40;;;;;;;5.97;5.30;;;;;26.60;101595.00;;;;5059231;28;20204;-78
2023/05/07 10:53:28;;;;;;;9.07;5.65;;;;;26.50;101596.00;;;;5053400;28;20661;-79
2023/05/07 10:56:27;;;;;;;5.97;5.38;;;;;26.60;101597.00;;;;5057323;28;20188;-79
2023/05/07 10:58:55;;;;;;;6.70;5.28;;;;;26.80;101600.00;;;;5059192;28;20276;-79
2023/05/07 11:01:54;;;;;;;6.20;5.57;;;;;26.80;101591.00;;;;5052680;28;20285;-78
2023/05/07 11:04:26;;;;;;;5.85;5.13;;;;;27.00;101593.00;;;;5056797;28;20214;-78
2023/05/07 11:07:28;;;;;;;7.00;5.78;;;;;27.00;101586.00;;;;5048567;28;20246;-78
2023/05/07 11:10:01;;;;;;;6.03;5.43;;;;;27.20;101593.00;;;;5054321;28;20278;-78
2023/05/07 11:12:47;;;;;;;6.20;5.60;;;;;27.20;101589.00;;;;5055408;28;20203;-78
2023/05/07 11:15:15;;;;;;;5.80;5.20;;;;;27.40;101593.00;;;;5055561;28;20203;-78
2023/05/07 11:17:56;;;;;;;9.90;6.82;;;;;27.40;101590.00;;;;5052367;28;20277;-80
2023/05/07 11:20:50;;;;;;;6.88;6.13;;;;;27.40;101592.00;;;;5058019;28;20205;-79
2023/05/07 11:23:58;;;;;;;9.45;5.93;;;;;27.50;101596.00;;;;5049120;28;20192;-77
2023/05/07 11:26:26;;;;;;;7.05;5.45;;;;;27.60;101603.00;;;;5053009;28;20196;-78
2023/05/07 11:28:54;;;;;;;6.00;5.38;;;;;27.70;101598.00;;;;5049534;28;20195;-78
2023/05/07 11:31:24;;;;;;;6.50;5.85;;;;;27.70;101600.00;;;;5056696;28;20206;-78
2023/05/07 11:33:54;;;;;;;6.93;5.28;;;;;27.70;101601.00;;;;5056211;28;20235;-78
2023/05/07 11:36:25;;;;;;;4.93;4.43;;;;;27.70;101602.00;;;;5054625;28;20207;-78
2023/05/07 11:38:53;;;;;;;6.00;5.40;;;;;27.80;101601.00;;;;5055520;28;20215;-78
2023/05/07 11:41:23;;;;;;;5.32;4.70;;;;;27.80;101606.00;;;;5052774;28;20203;-78
2023/05/07 11:43:57;;;;;;;7.00;5.38;;;;;27.70;101604.00;;;;5054899;28;20199;-78
2023/05/07 11:46:25;;;;;;;6.47;5.65;;;;;27.80;101606.00;;;;5051110;28;20197;-78
2023/05/07 11:48:54;;;;;;;7.38;5.07;;;;;27.90;101608.00;;;;5049736;28;20195;-78
2023/05/07 11:51:23;;;;;;;6.50;5.10;;;;;27.90;101604.00;;;;5062896;28;20196;-79
2023/05/07 11:53:51;;;;;;;5.53;4.93;;;;;28.00;101603.00;;;;5053285;28;20191;-78
2023/05/07 11:56:19;;;;;;;13.30;5.68;;;;;28.00;101602.00;;;;5049325;28;20196;-78
2023/05/07 11:58:49;;;;;;;6.85;4.95;;;;;28.10;101609.00;;;;5048492;28;20266;-78
2023/05/07 12:01:19;;;;;;;7.95;4.85;;;;;28.10;101607.00;;;;5055254;28;20999;-78
2023/05/07 12:03:47;;;;;;;8.63;4.95;;;;;28.20;101608.00;;;;5064246;28;20595;-78
2023/05/07 12:06:17;;;;;;;5.82;5.22;;;;;28.20;101606.00;;;;5059127;28;20192;-79
2023/05/07 12:08:46;;;;;;;5.20;4.70;;;;;28.20;101615.00;;;;5050809;28;20206;-78
2023/05/07 12:11:17;;;;;;;4.88;4.40;;;;;28.30;101609.00;;;;5050590;28;20200;-78
2023/05/07 12:13:45;;;;;;;9.23;4.97;;;;;28.40;101605.00;;;;5054967;28;20277;-79
2023/05/07 12:16:13;;;;;;;7.70;4.35;;;;;28.50;101595.00;;;;5051346;28;20199;-79